sensor_id;sensor_type;location;lat;lon;timestamp;P1;durP1;ratioP1;P2;durP2;ratioP2
31808;SDS011;18379;48.208;-1.518;2024-02-26T00:04:52;20.57;;;17.53;;
31808;SDS011;18379;48.208;-1.518;2024-02-26T00:09:52;19.57;;;17.57;;
31808;SDS011;18379;48.208;-1.518;2024-02-26T00:14:53;21.73;;;19.43;;
31808;SDS011;18379;48.208;-1.518;2024-02-26T00:19:54;25.70;;;21.37;;
31808;SDS011;18379;48.208;-1.518;2024-02-26T00:24:54;23.70;;;19.83;;
31808;SDS011;18379;48.208;-1.518;2024-02-26T00:29:55;27.27;;;20.97;;
31808;SDS011;18379;48.208;-1.518;2024-02-26T00:34:55;22.90;;;19.87;;
31808;SDS011;18379;48.208;-1.518;2024-02-26T00:39:56;19.33;;;17.30;;
31808;SDS011;18379;48.208;-1.518;2024-02-26T00:44:57;27.37;;;22.00;;
31808;SDS011;18379;48.208;-1.518;2024-02-26T00:49:57;25.93;;;22.23;;
31808;SDS011;18379;48.208;-1.518;2024-02-26T00:54:58;19.77;;;17.53;;
31808;SDS011;18379;48.208;-1.518;2024-02-26T00:59:58;28.07;;;20.83;;
31808;SDS011;18379;48.208;-1.518;2024-02-26T01:05:00;19.00;;;17.10;;
31808;SDS011;18379;48.208;-1.518;2024-02-26T01:10:01;18.30;;;16.50;;
31808;SDS011;18379;48.208;-1.518;2024-02-26T01:15:03;16.73;;;15.07;;
31808;SDS011;18379;48.208;-1.518;2024-02-26T01:20:04;16.90;;;15.17;;
31808;SDS011;18379;48.208;-1.518;2024-02-26T01:25:05;17.40;;;15.60;;
31808;SDS011;18379;48.208;-1.518;2024-02-26T01:30:07;16.30;;;14.80;;
31808;SDS011;18379;48.208;-1.518;2024-02-26T01:35:08;16.40;;;14.80;;
31808;SDS011;18379;48.208;-1.518;2024-02-26T01:40:11;15.93;;;14.53;;
31808;SDS011;18379;48.208;-1.518;2024-02-26T01:45:13;15.97;;;14.47;;
31808;SDS011;18379;48.208;-1.518;2024-02-26T01:50:20;16.70;;;15.20;;
31808;SDS011;18379;48.208;-1.518;2024-02-26T01:55:22;15.53;;;14.03;;
31808;SDS011;18379;48.208;-1.518;2024-02-26T02:00:24;15.57;;;14.37;;
31808;SDS011;18379;48.208;-1.518;2024-02-26T02:05:25;15.30;;;13.90;;
31808;SDS011;18379;48.208;-1.518;2024-02-26T02:10:26;16.17;;;14.57;;
31808;SDS011;18379;48.208;-1.518;2024-02-26T02:15:27;16.77;;;15.37;;
31808;SDS011;18379;48.208;-1.518;2024-02-26T02:20:35;16.73;;;15.03;;
31808;SDS011;18379;48.208;-1.518;2024-02-26T02:25:36;16.50;;;15.00;;
31808;SDS011;18379;48.208;-1.518;2024-02-26T02:30:36;21.27;;;15.70;;
31808;SDS011;18379;48.208;-1.518;2024-02-26T02:35:38;17.73;;;15.83;;
31808;SDS011;18379;48.208;-1.518;2024-02-26T02:40:39;16.97;;;15.27;;
31808;SDS011;18379;48.208;-1.518;2024-02-26T02:45:40;17.33;;;15.70;;
31808;SDS011;18379;48.208;-1.518;2024-02-26T02:50:40;16.07;;;14.70;;
31808;SDS011;18379;48.208;-1.518;2024-02-26T02:55:41;17.17;;;15.67;;
31808;SDS011;18379;48.208;-1.518;2024-02-26T03:00:42;17.83;;;16.00;;
31808;SDS011;18379;48.208;-1.518;2024-02-26T03:05:43;17.73;;;15.80;;
31808;SDS011;18379;48.208;-1.518;2024-02-26T03:10:44;17.90;;;15.40;;
31808;SDS011;18379;48.208;-1.518;2024-02-26T03:15:44;17.03;;;15.40;;
31808;SDS011;18379;48.208;-1.518;2024-02-26T03:20:45;18.83;;;16.07;;
31808;SDS011;18379;48.208;-1.518;2024-02-26T03:25:46;18.37;;;16.67;;
31808;SDS011;18379;48.208;-1.518;2024-02-26T03:30:47;16.77;;;15.07;;
31808;SDS011;18379;48.208;-1.518;2024-02-26T03:35:48;17.40;;;15.63;;
31808;SDS011;18379;48.208;-1.518;2024-02-26T03:40:49;21.50;;;16.13;;
31808;SDS011;18379;48.208;-1.518;2024-02-26T03:45:49;17.83;;;16.03;;
31808;SDS011;18379;48.208;-1.518;2024-02-26T03:50:50;17.83;;;16.03;;
31808;SDS011;18379;48.208;-1.518;2024-02-26T03:55:51;17.43;;;15.80;;
31808;SDS011;18379;48.208;-1.518;2024-02-26T04:00:52;16.70;;;15.30;;
31808;SDS011;18379;48.208;-1.518;2024-02-26T04:05:53;17.10;;;15.60;;
31808;SDS011;18379;48.208;-1.518;2024-02-26T04:10:53;17.10;;;15.60;;
31808;SDS011;18379;48.208;-1.518;2024-02-26T04:15:54;15.80;;;14.60;;
31808;SDS011;18379;48.208;-1.518;2024-02-26T04:20:55;14.90;;;13.70;;
31808;SDS011;18379;48.208;-1.518;2024-02-26T04:25:56;14.30;;;13.30;;
31808;SDS011;18379;48.208;-1.518;2024-02-26T04:30:57;16.67;;;15.17;;
31808;SDS011;18379;48.208;-1.518;2024-02-26T04:35:58;14.93;;;13.87;;
31808;SDS011;18379;48.208;-1.518;2024-02-26T04:40:58;21.20;;;17.20;;
31808;SDS011;18379;48.208;-1.518;2024-02-26T04:45:59;16.20;;;14.80;;
31808;SDS011;18379;48.208;-1.518;2024-02-26T04:50:59;17.10;;;15.63;;
31808;SDS011;18379;48.208;-1.518;2024-02-26T04:56:01;17.57;;;15.93;;
31808;SDS011;18379;48.208;-1.518;2024-02-26T05:01:02;21.67;;;19.30;;
31808;SDS011;18379;48.208;-1.518;2024-02-26T05:06:04;25.63;;;19.80;;
31808;SDS011;18379;48.208;-1.518;2024-02-26T05:11:05;18.37;;;16.37;;
31808;SDS011;18379;48.208;-1.518;2024-02-26T05:16:06;18.47;;;16.80;;
31808;SDS011;18379;48.208;-1.518;2024-02-26T05:21:06;38.80;;;28.47;;
31808;SDS011;18379;48.208;-1.518;2024-02-26T05:26:07;27.53;;;23.07;;
31808;SDS011;18379;48.208;-1.518;2024-02-26T05:31:07;25.10;;;22.60;;
31808;SDS011;18379;48.208;-1.518;2024-02-26T05:36:08;18.63;;;17.00;;
31808;SDS011;18379;48.208;-1.518;2024-02-26T05:41:09;18.10;;;16.70;;
31808;SDS011;18379;48.208;-1.518;2024-02-26T05:46:10;16.80;;;15.53;;
31808;SDS011;18379;48.208;-1.518;2024-02-26T05:51:11;14.67;;;13.67;;
31808;SDS011;18379;48.208;-1.518;2024-02-26T05:56:11;14.53;;;13.60;;
31808;SDS011;18379;48.208;-1.518;2024-02-26T06:01:12;14.50;;;13.50;;
31808;SDS011;18379;48.208;-1.518;2024-02-26T06:06:13;14.97;;;13.97;;
31808;SDS011;18379;48.208;-1.518;2024-02-26T06:11:15;13.40;;;12.60;;
31808;SDS011;18379;48.208;-1.518;2024-02-26T06:16:15;13.37;;;12.53;;
31808;SDS011;18379;48.208;-1.518;2024-02-26T06:21:16;13.67;;;12.77;;
31808;SDS011;18379;48.208;-1.518;2024-02-26T06:26:17;13.13;;;12.23;;
31808;SDS011;18379;48.208;-1.518;2024-02-26T06:31:17;13.07;;;12.20;;
31808;SDS011;18379;48.208;-1.518;2024-02-26T06:36:18;12.83;;;12.13;;
31808;SDS011;18379;48.208;-1.518;2024-02-26T06:41:19;13.20;;;12.30;;
31808;SDS011;18379;48.208;-1.518;2024-02-26T06:46:20;13.10;;;12.30;;
31808;SDS011;18379;48.208;-1.518;2024-02-26T06:51:21;12.67;;;11.70;;
31808;SDS011;18379;48.208;-1.518;2024-02-26T06:56:22;13.00;;;12.20;;
31808;SDS011;18379;48.208;-1.518;2024-02-26T07:01:23;13.60;;;12.70;;
31808;SDS011;18379;48.208;-1.518;2024-02-26T07:06:23;13.70;;;12.60;;
31808;SDS011;18379;48.208;-1.518;2024-02-26T07:11:24;13.10;;;12.00;;
31808;SDS011;18379;48.208;-1.518;2024-02-26T07:16:25;12.70;;;11.90;;
31808;SDS011;18379;48.208;-1.518;2024-02-26T07:21:27;13.53;;;12.60;;
31808;SDS011;18379;48.208;-1.518;2024-02-26T07:26:27;12.93;;;11.97;;
31808;SDS011;18379;48.208;-1.518;2024-02-26T07:31:30;13.47;;;12.37;;
31808;SDS011;18379;48.208;-1.518;2024-02-26T07:36:31;11.93;;;11.33;;
31808;SDS011;18379;48.208;-1.518;2024-02-26T07:41:32;12.43;;;11.63;;
31808;SDS011;18379;48.208;-1.518;2024-02-26T07:46:33;18.10;;;16.37;;
31808;SDS011;18379;48.208;-1.518;2024-02-26T07:51:33;13.00;;;12.20;;
31808;SDS011;18379;48.208;-1.518;2024-02-26T07:56:34;13.90;;;12.90;;
31808;SDS011;18379;48.208;-1.518;2024-02-26T08:01:35;14.57;;;13.43;;
31808;SDS011;18379;48.208;-1.518;2024-02-26T08:06:39;16.40;;;14.70;;
31808;SDS011;18379;48.208;-1.518;2024-02-26T08:11:39;14.80;;;13.60;;
31808;SDS011;18379;48.208;-1.518;2024-02-26T08:16:40;13.67;;;12.60;;
31808;SDS011;18379;48.208;-1.518;2024-02-26T08:21:41;13.50;;;12.60;;
31808;SDS011;18379;48.208;-1.518;2024-02-26T08:26:41;13.40;;;12.40;;
31808;SDS011;18379;48.208;-1.518;2024-02-26T08:31:42;14.40;;;13.30;;
31808;SDS011;18379;48.208;-1.518;2024-02-26T08:36:43;14.20;;;13.10;;
31808;SDS011;18379;48.208;-1.518;2024-02-26T08:41:44;14.20;;;13.20;;
31808;SDS011;18379;48.208;-1.518;2024-02-26T08:46:45;13.77;;;12.57;;
31808;SDS011;18379;48.208;-1.518;2024-02-26T08:51:46;14.37;;;13.27;;
31808;SDS011;18379;48.208;-1.518;2024-02-26T08:56:46;12.80;;;11.87;;
31808;SDS011;18379;48.208;-1.518;2024-02-26T09:01:47;15.03;;;13.73;;
31808;SDS011;18379;48.208;-1.518;2024-02-26T09:06:47;14.13;;;13.03;;
31808;SDS011;18379;48.208;-1.518;2024-02-26T09:11:49;13.03;;;12.00;;
31808;SDS011;18379;48.208;-1.518;2024-02-26T09:16:51;16.43;;;14.73;;
31808;SDS011;18379;48.208;-1.518;2024-02-26T09:21:52;20.50;;;17.20;;
31808;SDS011;18379;48.208;-1.518;2024-02-26T09:26:57;19.63;;;16.80;;
31808;SDS011;18379;48.208;-1.518;2024-02-26T09:31:57;15.50;;;14.20;;
31808;SDS011;18379;48.208;-1.518;2024-02-26T09:36:58;16.50;;;15.03;;
31808;SDS011;18379;48.208;-1.518;2024-02-26T09:42:00;14.17;;;13.00;;
31808;SDS011;18379;48.208;-1.518;2024-02-26T09:47:05;14.17;;;12.97;;
31808;SDS011;18379;48.208;-1.518;2024-02-26T09:52:08;13.40;;;12.30;;
31808;SDS011;18379;48.208;-1.518;2024-02-26T09:57:09;13.60;;;12.27;;
31808;SDS011;18379;48.208;-1.518;2024-02-26T10:02:15;13.77;;;12.77;;
31808;SDS011;18379;48.208;-1.518;2024-02-26T10:07:19;13.63;;;12.63;;
31808;SDS011;18379;48.208;-1.518;2024-02-26T10:12:20;13.23;;;12.23;;
31808;SDS011;18379;48.208;-1.518;2024-02-26T10:17:22;14.03;;;12.93;;
31808;SDS011;18379;48.208;-1.518;2024-02-26T10:22:23;13.47;;;12.30;;
31808;SDS011;18379;48.208;-1.518;2024-02-26T10:27:23;14.47;;;13.27;;
31808;SDS011;18379;48.208;-1.518;2024-02-26T10:32:25;13.83;;;12.70;;
31808;SDS011;18379;48.208;-1.518;2024-02-26T10:37:26;15.93;;;14.37;;
31808;SDS011;18379;48.208;-1.518;2024-02-26T10:42:26;17.67;;;14.63;;
31808;SDS011;18379;48.208;-1.518;2024-02-26T10:47:27;14.43;;;13.23;;
31808;SDS011;18379;48.208;-1.518;2024-02-26T10:52:31;16.43;;;14.80;;
31808;SDS011;18379;48.208;-1.518;2024-02-26T10:57:38;14.40;;;13.10;;
31808;SDS011;18379;48.208;-1.518;2024-02-26T11:02:40;14.13;;;12.80;;
31808;SDS011;18379;48.208;-1.518;2024-02-26T11:07:41;18.40;;;14.67;;
31808;SDS011;18379;48.208;-1.518;2024-02-26T11:12:42;14.03;;;12.93;;
31808;SDS011;18379;48.208;-1.518;2024-02-26T11:17:44;13.60;;;12.57;;
31808;SDS011;18379;48.208;-1.518;2024-02-26T11:22:47;13.70;;;12.70;;
31808;SDS011;18379;48.208;-1.518;2024-02-26T11:27:59;13.60;;;12.60;;
31808;SDS011;18379;48.208;-1.518;2024-02-26T11:33:03;14.30;;;12.97;;
31808;SDS011;18379;48.208;-1.518;2024-02-26T11:38:05;13.77;;;12.77;;
31808;SDS011;18379;48.208;-1.518;2024-02-26T11:43:07;15.80;;;14.20;;
31808;SDS011;18379;48.208;-1.518;2024-02-26T11:48:41;15.20;;;13.40;;
31808;SDS011;18379;48.208;-1.518;2024-02-26T11:53:35;20.83;;;16.00;;
31808;SDS011;18379;48.208;-1.518;2024-02-26T11:58:48;18.03;;;14.77;;
31808;SDS011;18379;48.208;-1.518;2024-02-26T12:03:56;15.17;;;13.67;;
31808;SDS011;18379;48.208;-1.518;2024-02-26T12:08:57;12.87;;;11.87;;
31808;SDS011;18379;48.208;-1.518;2024-02-26T12:13:57;14.13;;;12.93;;
31808;SDS011;18379;48.208;-1.518;2024-02-26T12:18:58;14.83;;;13.53;;
31808;SDS011;18379;48.208;-1.518;2024-02-26T12:24:12;19.07;;;16.33;;
31808;SDS011;18379;48.208;-1.518;2024-02-26T12:29:15;13.97;;;12.77;;
31808;SDS011;18379;48.208;-1.518;2024-02-26T12:34:16;13.87;;;12.80;;
31808;SDS011;18379;48.208;-1.518;2024-02-26T12:39:17;21.20;;;16.37;;
31808;SDS011;18379;48.208;-1.518;2024-02-26T12:44:26;18.17;;;15.47;;
31808;SDS011;18379;48.208;-1.518;2024-02-26T12:49:27;15.07;;;13.73;;
31808;SDS011;18379;48.208;-1.518;2024-02-26T12:54:30;15.23;;;13.67;;
31808;SDS011;18379;48.208;-1.518;2024-02-26T12:59:32;19.17;;;17.13;;
31808;SDS011;18379;48.208;-1.518;2024-02-26T13:04:34;14.73;;;13.53;;
31808;SDS011;18379;48.208;-1.518;2024-02-26T13:09:35;15.37;;;13.30;;
31808;SDS011;18379;48.208;-1.518;2024-02-26T13:14:36;13.17;;;12.17;;
31808;SDS011;18379;48.208;-1.518;2024-02-26T13:19:37;14.20;;;13.00;;
31808;SDS011;18379;48.208;-1.518;2024-02-26T13:24:54;15.33;;;13.83;;
31808;SDS011;18379;48.208;-1.518;2024-02-26T13:35:10;14.77;;;12.93;;
31808;SDS011;18379;48.208;-1.518;2024-02-26T13:40:12;14.03;;;12.83;;
31808;SDS011;18379;48.208;-1.518;2024-02-26T13:45:13;13.83;;;12.47;;
31808;SDS011;18379;48.208;-1.518;2024-02-26T13:50:13;13.97;;;12.50;;
31808;SDS011;18379;48.208;-1.518;2024-02-26T13:55:14;12.73;;;11.80;;
31808;SDS011;18379;48.208;-1.518;2024-02-26T14:00:15;13.40;;;12.20;;
31808;SDS011;18379;48.208;-1.518;2024-02-26T14:05:16;13.47;;;12.47;;
31808;SDS011;18379;48.208;-1.518;2024-02-26T14:10:17;14.10;;;12.77;;
31808;SDS011;18379;48.208;-1.518;2024-02-26T14:15:17;13.73;;;12.57;;
31808;SDS011;18379;48.208;-1.518;2024-02-26T14:20:18;14.93;;;13.43;;
31808;SDS011;18379;48.208;-1.518;2024-02-26T14:25:19;13.87;;;12.50;;
31808;SDS011;18379;48.208;-1.518;2024-02-26T14:30:20;13.57;;;12.37;;
31808;SDS011;18379;48.208;-1.518;2024-02-26T14:35:21;14.60;;;13.10;;
31808;SDS011;18379;48.208;-1.518;2024-02-26T14:40:22;14.30;;;13.17;;
31808;SDS011;18379;48.208;-1.518;2024-02-26T14:45:23;26.43;;;16.30;;
31808;SDS011;18379;48.208;-1.518;2024-02-26T14:50:23;27.40;;;18.23;;
31808;SDS011;18379;48.208;-1.518;2024-02-26T14:55:24;19.50;;;16.20;;
31808;SDS011;18379;48.208;-1.518;2024-02-26T15:00:24;17.97;;;15.50;;
31808;SDS011;18379;48.208;-1.518;2024-02-26T15:05:25;19.93;;;16.70;;
31808;SDS011;18379;48.208;-1.518;2024-02-26T15:10:26;21.17;;;14.30;;
31808;SDS011;18379;48.208;-1.518;2024-02-26T15:15:28;25.97;;;17.07;;
31808;SDS011;18379;48.208;-1.518;2024-02-26T15:20:29;20.47;;;14.67;;
31808;SDS011;18379;48.208;-1.518;2024-02-26T15:25:30;15.67;;;13.83;;
31808;SDS011;18379;48.208;-1.518;2024-02-26T15:30:31;24.23;;;16.27;;
31808;SDS011;18379;48.208;-1.518;2024-02-26T15:35:33;18.17;;;14.53;;
31808;SDS011;18379;48.208;-1.518;2024-02-26T15:40:33;19.63;;;15.00;;
31808;SDS011;18379;48.208;-1.518;2024-02-26T15:45:34;18.00;;;15.70;;
31808;SDS011;18379;48.208;-1.518;2024-02-26T15:50:35;15.00;;;13.53;;
31808;SDS011;18379;48.208;-1.518;2024-02-26T15:55:37;18.30;;;13.20;;
31808;SDS011;18379;48.208;-1.518;2024-02-26T16:00:39;14.80;;;13.40;;
31808;SDS011;18379;48.208;-1.518;2024-02-26T16:05:41;14.30;;;12.50;;
31808;SDS011;18379;48.208;-1.518;2024-02-26T16:10:42;14.97;;;13.30;;
31808;SDS011;18379;48.208;-1.518;2024-02-26T16:15:44;19.07;;;13.00;;
31808;SDS011;18379;48.208;-1.518;2024-02-26T16:20:50;14.70;;;13.13;;
31808;SDS011;18379;48.208;-1.518;2024-02-26T16:25:50;14.50;;;13.00;;
31808;SDS011;18379;48.208;-1.518;2024-02-26T16:30:51;14.93;;;12.57;;
31808;SDS011;18379;48.208;-1.518;2024-02-26T16:35:52;18.30;;;13.20;;
31808;SDS011;18379;48.208;-1.518;2024-02-26T16:40:54;16.10;;;13.50;;
31808;SDS011;18379;48.208;-1.518;2024-02-26T16:45:54;19.43;;;14.87;;
31808;SDS011;18379;48.208;-1.518;2024-02-26T16:50:55;20.57;;;14.53;;
31808;SDS011;18379;48.208;-1.518;2024-02-26T16:55:55;16.17;;;13.07;;
31808;SDS011;18379;48.208;-1.518;2024-02-26T17:00:58;16.23;;;13.43;;
31808;SDS011;18379;48.208;-1.518;2024-02-26T17:05:59;17.17;;;14.60;;
31808;SDS011;18379;48.208;-1.518;2024-02-26T17:11:00;17.40;;;13.17;;
31808;SDS011;18379;48.208;-1.518;2024-02-26T17:16:00;14.07;;;12.67;;
31808;SDS011;18379;48.208;-1.518;2024-02-26T17:21:01;15.03;;;12.83;;
31808;SDS011;18379;48.208;-1.518;2024-02-26T17:26:02;16.33;;;13.40;;
31808;SDS011;18379;48.208;-1.518;2024-02-26T17:31:03;14.77;;;13.37;;
31808;SDS011;18379;48.208;-1.518;2024-02-26T17:36:04;18.50;;;13.47;;
31808;SDS011;18379;48.208;-1.518;2024-02-26T17:41:06;14.03;;;12.67;;
31808;SDS011;18379;48.208;-1.518;2024-02-26T17:46:08;13.23;;;12.03;;
31808;SDS011;18379;48.208;-1.518;2024-02-26T17:51:08;16.27;;;14.00;;
31808;SDS011;18379;48.208;-1.518;2024-02-26T17:56:11;17.67;;;13.30;;
31808;SDS011;18379;48.208;-1.518;2024-02-26T18:01:13;14.13;;;12.77;;
31808;SDS011;18379;48.208;-1.518;2024-02-26T18:06:14;15.03;;;13.40;;
31808;SDS011;18379;48.208;-1.518;2024-02-26T18:11:15;18.97;;;15.53;;
31808;SDS011;18379;48.208;-1.518;2024-02-26T18:16:16;21.07;;;14.43;;
31808;SDS011;18379;48.208;-1.518;2024-02-26T18:21:17;21.13;;;15.57;;
31808;SDS011;18379;48.208;-1.518;2024-02-26T18:26:21;23.27;;;15.07;;
31808;SDS011;18379;48.208;-1.518;2024-02-26T18:31:22;25.53;;;17.03;;
31808;SDS011;18379;48.208;-1.518;2024-02-26T18:36:23;15.30;;;13.33;;
31808;SDS011;18379;48.208;-1.518;2024-02-26T18:41:24;18.30;;;13.50;;
31808;SDS011;18379;48.208;-1.518;2024-02-26T18:46:25;15.80;;;12.47;;
31808;SDS011;18379;48.208;-1.518;2024-02-26T18:51:26;22.70;;;15.63;;
31808;SDS011;18379;48.208;-1.518;2024-02-26T18:56:27;15.23;;;13.60;;
31808;SDS011;18379;48.208;-1.518;2024-02-26T19:01:27;15.63;;;13.37;;
31808;SDS011;18379;48.208;-1.518;2024-02-26T19:06:28;17.17;;;15.00;;
31808;SDS011;18379;48.208;-1.518;2024-02-26T19:11:32;17.00;;;15.17;;
31808;SDS011;18379;48.208;-1.518;2024-02-26T19:16:33;14.50;;;13.00;;
31808;SDS011;18379;48.208;-1.518;2024-02-26T19:21:35;14.87;;;13.33;;
31808;SDS011;18379;48.208;-1.518;2024-02-26T19:26:36;14.40;;;12.70;;
31808;SDS011;18379;48.208;-1.518;2024-02-26T19:31:39;13.57;;;12.47;;
31808;SDS011;18379;48.208;-1.518;2024-02-26T19:36:40;15.73;;;12.27;;
31808;SDS011;18379;48.208;-1.518;2024-02-26T19:41:40;14.30;;;12.87;;
31808;SDS011;18379;48.208;-1.518;2024-02-26T19:46:41;16.93;;;12.87;;
31808;SDS011;18379;48.208;-1.518;2024-02-26T19:51:42;22.23;;;15.20;;
31808;SDS011;18379;48.208;-1.518;2024-02-26T19:56:43;24.37;;;15.20;;
31808;SDS011;18379;48.208;-1.518;2024-02-26T20:01:44;16.33;;;13.60;;
31808;SDS011;18379;48.208;-1.518;2024-02-26T20:06:46;15.87;;;13.00;;
31808;SDS011;18379;48.208;-1.518;2024-02-26T20:11:48;15.77;;;12.93;;
31808;SDS011;18379;48.208;-1.518;2024-02-26T20:16:48;16.63;;;13.10;;
31808;SDS011;18379;48.208;-1.518;2024-02-26T20:21:49;13.27;;;12.07;;
31808;SDS011;18379;48.208;-1.518;2024-02-26T20:26:50;14.70;;;13.00;;
31808;SDS011;18379;48.208;-1.518;2024-02-26T20:31:50;14.87;;;13.17;;
31808;SDS011;18379;48.208;-1.518;2024-02-26T20:36:51;13.90;;;12.70;;
31808;SDS011;18379;48.208;-1.518;2024-02-26T20:41:52;13.50;;;12.30;;
31808;SDS011;18379;48.208;-1.518;2024-02-26T20:46:52;15.67;;;13.00;;
31808;SDS011;18379;48.208;-1.518;2024-02-26T20:51:55;22.03;;;14.63;;
31808;SDS011;18379;48.208;-1.518;2024-02-26T20:56:56;13.87;;;12.70;;
31808;SDS011;18379;48.208;-1.518;2024-02-26T21:01:57;14.37;;;12.90;;
31808;SDS011;18379;48.208;-1.518;2024-02-26T21:06:57;13.60;;;12.27;;
31808;SDS011;18379;48.208;-1.518;2024-02-26T21:11:58;18.47;;;13.10;;
31808;SDS011;18379;48.208;-1.518;2024-02-26T21:16:59;14.47;;;12.70;;
31808;SDS011;18379;48.208;-1.518;2024-02-26T21:21:59;13.20;;;12.03;;
31808;SDS011;18379;48.208;-1.518;2024-02-26T21:27:00;13.73;;;12.30;;
31808;SDS011;18379;48.208;-1.518;2024-02-26T21:32:00;12.90;;;11.80;;
31808;SDS011;18379;48.208;-1.518;2024-02-26T21:37:01;13.93;;;12.43;;
31808;SDS011;18379;48.208;-1.518;2024-02-26T21:42:02;14.63;;;12.03;;
31808;SDS011;18379;48.208;-1.518;2024-02-26T21:47:03;12.60;;;11.30;;
31808;SDS011;18379;48.208;-1.518;2024-02-26T21:52:03;16.93;;;12.00;;
31808;SDS011;18379;48.208;-1.518;2024-02-26T21:57:04;16.03;;;14.07;;
31808;SDS011;18379;48.208;-1.518;2024-02-26T22:02:05;19.10;;;12.73;;
31808;SDS011;18379;48.208;-1.518;2024-02-26T22:07:06;13.47;;;12.07;;
31808;SDS011;18379;48.208;-1.518;2024-02-26T22:12:07;14.23;;;12.40;;
31808;SDS011;18379;48.208;-1.518;2024-02-26T22:17:07;13.87;;;12.23;;
31808;SDS011;18379;48.208;-1.518;2024-02-26T22:22:08;17.70;;;13.00;;
31808;SDS011;18379;48.208;-1.518;2024-02-26T22:27:09;13.77;;;12.00;;
31808;SDS011;18379;48.208;-1.518;2024-02-26T22:32:10;13.17;;;11.77;;
31808;SDS011;18379;48.208;-1.518;2024-02-26T22:37:10;14.70;;;12.50;;
31808;SDS011;18379;48.208;-1.518;2024-02-26T22:42:13;18.13;;;13.07;;
31808;SDS011;18379;48.208;-1.518;2024-02-26T22:47:14;15.37;;;11.83;;
31808;SDS011;18379;48.208;-1.518;2024-02-26T22:52:15;12.10;;;11.00;;
31808;SDS011;18379;48.208;-1.518;2024-02-26T22:57:17;13.47;;;12.00;;
31808;SDS011;18379;48.208;-1.518;2024-02-26T23:02:18;13.27;;;11.70;;
31808;SDS011;18379;48.208;-1.518;2024-02-26T23:07:18;12.87;;;11.60;;
31808;SDS011;18379;48.208;-1.518;2024-02-26T23:12:19;13.37;;;12.13;;
31808;SDS011;18379;48.208;-1.518;2024-02-26T23:17:20;24.80;;;12.03;;
31808;SDS011;18379;48.208;-1.518;2024-02-26T23:22:21;14.57;;;11.43;;
31808;SDS011;18379;48.208;-1.518;2024-02-26T23:27:22;15.60;;;11.83;;
31808;SDS011;18379;48.208;-1.518;2024-02-26T23:32:23;14.63;;;11.37;;
31808;SDS011;18379;48.208;-1.518;2024-02-26T23:37:23;14.53;;;11.73;;
31808;SDS011;18379;48.208;-1.518;2024-02-26T23:42:24;17.13;;;11.90;;
31808;SDS011;18379;48.208;-1.518;2024-02-26T23:47:25;13.13;;;11.60;;
31808;SDS011;18379;48.208;-1.518;2024-02-26T23:52:26;16.23;;;12.37;;
31808;SDS011;18379;48.208;-1.518;2024-02-26T23:57:26;16.33;;;11.80;;
